PWSweather.com
Personal Weather Stations
Station Observations
KB2SBX
Sugarloaf, Sugarloaf, PA 18249

SugarloafSugarloaf, PA 18249

Lat: 41.0126685, Lon: -76.1082041

Elevation: 1030

Station Type: WS-2080

http://sugarloafpaweather.webng.com/weather.shtml

High Low Average
Temperature 25.3°F-3.7°C 12.7°F-10.7°C 19.3°F-7.1°C
Dew Point 12.3°F-10.9°C -2.0°F-18.9°C 4.8°F-15.1°C
Winds 5.8 mph 9.3 kmh 1.0 mph 1.6 kmh 4.0 mph W6.4 kmh W
Wind Gusts 22.8 mph36.7 kmh 3.8 mph6.1 kmh 11.0 mph17.7 kmh
Humidity 60% 47% 53%
Pressure 29.86 in1011.2 mb 29.77 in1008.1 mb -
Precipitation 0.01 in0.3 mm - -
Hour Temp Dew Point Humidity Winds Wind Gusts Pressure Precip Precip Rate Daily Precip Total
12:00 AM 16.7°F-8.5°C 0.5°F-17.5°C 48% 2.9 mph E4.7 kmh E 6.9 mph11.1 kmh 29.79 in1008.8 mb 0.00 in0.0 mm 0.00 in/hr0.0 mm/hr 0.01 in0.3 mm
12:15 AM 16.5°F-8.6°C 0.3°F-17.6°C 48% 3.4 mph W5.5 kmh W 9.2 mph14.8 kmh 29.79 in1008.8 mb 0.00 in0.0 mm 0.00 in/hr0.0 mm/hr 0.00 in0.0 mm
12:30 AM 16.2°F-8.8°C -0.4°F-18.0°C 47% 5.4 mph NNW8.7 kmh NNW 14.5 mph23.3 kmh 29.80 in1009.1 mb 0.00 in0.0 mm 0.00 in/hr0.0 mm/hr 0.00 in0.0 mm
12:45 AM 16.0°F-8.9°C -0.2°F-17.9°C 48% 3.9 mph NW6.3 kmh NW 15.2 mph24.5 kmh 29.80 in1009.1 mb 0.00 in0.0 mm 0.00 in/hr0.0 mm/hr 0.00 in0.0 mm
01:00 AM 15.8°F-9.0°C 0.1°F-17.7°C 49% 3.5 mph W5.6 kmh W 8.3 mph13.4 kmh 29.80 in1009.1 mb 0.00 in0.0 mm 0.00 in/hr0.0 mm/hr 0.00 in0.0 mm
01:15 AM 15.4°F-9.2°C 0.2°F-17.7°C 50% 5.0 mph W8.0 kmh W 13.0 mph20.9 kmh 29.81 in1009.5 mb 0.00 in0.0 mm 0.00 in/hr0.0 mm/hr 0.00 in0.0 mm
01:30 AM 15.1°F-9.4°C -0.6°F-18.1°C 49% 4.6 mph NW7.4 kmh NW 9.8 mph15.8 kmh 29.82 in1009.8 mb 0.00 in0.0 mm 0.00 in/hr0.0 mm/hr 0.00 in0.0 mm
01:45 AM 14.7°F-9.6°C -0.9°F-18.3°C 49% 5.8 mph NW9.3 kmh NW 16.8 mph27.0 kmh 29.82 in1009.8 mb 0.00 in0.0 mm 0.00 in/hr0.0 mm/hr 0.00 in0.0 mm
02:00 AM 14.4°F-9.8°C -1.7°F-18.7°C 48% 4.7 mph NNW7.6 kmh NNW 13.0 mph20.9 kmh 29.83 in1010.2 mb 0.00 in0.0 mm 0.00 in/hr0.0 mm/hr 0.00 in0.0 mm
02:15 AM 14.0°F-10.0°C -2.0°F-18.9°C 48% 5.5 mph WNW8.9 kmh WNW 11.4 mph18.3 kmh 29.82 in1009.8 mb 0.00 in0.0 mm 0.00 in/hr0.0 mm/hr 0.00 in0.0 mm
02:30 AM 13.6°F-10.2°C -1.5°F-18.6°C 50% 3.4 mph S5.5 kmh S 11.4 mph18.3 kmh 29.82 in1009.8 mb 0.00 in0.0 mm 0.00 in/hr0.0 mm/hr 0.00 in0.0 mm
02:45 AM 13.5°F-10.3°C -1.2°F-18.4°C 51% 4.8 mph SW7.7 kmh SW 12.1 mph19.5 kmh 29.82 in1009.8 mb 0.00 in0.0 mm 0.00 in/hr0.0 mm/hr 0.00 in0.0 mm
03:00 AM 13.5°F-10.3°C -1.2°F-18.4°C 51% 4.3 mph NW6.9 kmh NW 12.1 mph19.5 kmh 29.82 in1009.8 mb 0.00 in0.0 mm 0.00 in/hr0.0 mm/hr 0.00 in0.0 mm
03:15 AM 13.3°F-10.4°C -1.0°F-18.3°C 52% 2.0 mph W3.2 kmh W 7.6 mph12.2 kmh 29.82 in1009.8 mb 0.00 in0.0 mm 0.00 in/hr0.0 mm/hr 0.00 in0.0 mm
03:30 AM 13.1°F-10.5°C -0.7°F-18.2°C 53% 1.9 mph W3.1 kmh W 9.8 mph15.8 kmh 29.82 in1009.8 mb 0.00 in0.0 mm 0.00 in/hr0.0 mm/hr 0.00 in0.0 mm
03:45 AM 13.1°F-10.5°C -0.3°F-17.9°C 54% 1.3 mph WNW2.1 kmh WNW 8.3 mph13.4 kmh 29.82 in1009.8 mb 0.00 in0.0 mm 0.00 in/hr0.0 mm/hr 0.00 in0.0 mm
04:00 AM 13.1°F-10.5°C -0.3°F-17.9°C 54% 1.6 mph WSW2.6 kmh WSW 6.9 mph11.1 kmh 29.82 in1009.8 mb 0.00 in0.0 mm 0.00 in/hr0.0 mm/hr 0.00 in0.0 mm
04:15 AM 13.1°F-10.5°C 0.0°F-17.8°C 55% 2.3 mph WNW3.7 kmh WNW 9.2 mph14.8 kmh 29.82 in1009.8 mb 0.00 in0.0 mm 0.00 in/hr0.0 mm/hr 0.00 in0.0 mm
04:30 AM 13.1°F-10.5°C 0.0°F-17.8°C 55% 2.2 mph W3.5 kmh W 7.6 mph12.2 kmh 29.82 in1009.8 mb 0.00 in0.0 mm 0.00 in/hr0.0 mm/hr 0.00 in0.0 mm
04:45 AM 12.9°F-10.6°C -0.1°F-17.8°C 55% 2.1 mph WSW3.4 kmh WSW 6.0 mph9.7 kmh 29.82 in1009.8 mb 0.00 in0.0 mm 0.00 in/hr0.0 mm/hr 0.00 in0.0 mm
05:00 AM 12.9°F-10.6°C 0.3°F-17.6°C 56% 1.5 mph NW2.4 kmh NW 6.9 mph11.1 kmh 29.82 in1009.8 mb 0.00 in0.0 mm 0.00 in/hr0.0 mm/hr 0.00 in0.0 mm
05:15 AM 12.9°F-10.6°C 0.3°F-17.6°C 56% 2.3 mph WSW3.7 kmh WSW 11.4 mph18.3 kmh 29.82 in1009.8 mb 0.00 in0.0 mm 0.00 in/hr0.0 mm/hr 0.00 in0.0 mm
05:30 AM 12.9°F-10.6°C 0.3°F-17.6°C 56% 2.3 mph W3.7 kmh W 7.6 mph12.2 kmh 29.82 in1009.8 mb 0.00 in0.0 mm 0.00 in/hr0.0 mm/hr 0.00 in0.0 mm
05:45 AM 12.7°F-10.7°C 0.1°F-17.7°C 56% 1.7 mph W2.7 kmh W 6.0 mph9.7 kmh 29.82 in1009.8 mb 0.00 in0.0 mm 0.00 in/hr0.0 mm/hr 0.00 in0.0 mm
06:00 AM 13.1°F-10.5°C 0.8°F-17.3°C 57% 1.9 mph W3.1 kmh W 7.6 mph12.2 kmh 29.82 in1009.8 mb 0.00 in0.0 mm 0.00 in/hr0.0 mm/hr 0.00 in0.0 mm
06:15 AM 13.3°F-10.4°C 1.0°F-17.2°C 57% 1.7 mph SW2.7 kmh SW 5.4 mph8.7 kmh 29.82 in1009.8 mb 0.00 in0.0 mm 0.00 in/hr0.0 mm/hr 0.00 in0.0 mm
06:30 AM 13.5°F-10.3°C 1.5°F-16.9°C 58% 1.1 mph NW1.8 kmh NW 4.5 mph7.2 kmh 29.82 in1009.8 mb 0.00 in0.0 mm 0.00 in/hr0.0 mm/hr 0.00 in0.0 mm
06:45 AM 14.0°F-10.0°C 2.4°F-16.4°C 59% 1.0 mph SW1.6 kmh SW 3.8 mph6.1 kmh 29.82 in1009.8 mb 0.00 in0.0 mm 0.00 in/hr0.0 mm/hr 0.00 in0.0 mm
07:00 AM 14.4°F-9.8°C 3.1°F-16.1°C 60% 1.8 mph WSW2.9 kmh WSW 6.9 mph11.1 kmh 29.82 in1009.8 mb 0.00 in0.0 mm 0.00 in/hr0.0 mm/hr 0.00 in0.0 mm
07:15 AM 14.7°F-9.6°C 3.4°F-15.9°C 60% 2.5 mph WSW4.0 kmh WSW 8.3 mph13.4 kmh 29.82 in1009.8 mb 0.00 in0.0 mm 0.00 in/hr0.0 mm/hr 0.00 in0.0 mm
07:30 AM 15.1°F-9.4°C 3.8°F-15.7°C 60% 2.9 mph WSW4.7 kmh WSW 10.7 mph17.2 kmh 29.82 in1009.8 mb 0.00 in0.0 mm 0.00 in/hr0.0 mm/hr 0.00 in0.0 mm
07:45 AM 15.4°F-9.2°C 4.1°F-15.5°C 60% 3.4 mph NW5.5 kmh NW 14.5 mph23.3 kmh 29.81 in1009.5 mb 0.00 in0.0 mm 0.00 in/hr0.0 mm/hr 0.00 in0.0 mm
08:00 AM 16.2°F-8.8°C 4.4°F-15.3°C 59% 2.7 mph W4.3 kmh W 9.2 mph14.8 kmh 29.82 in1009.8 mb 0.00 in0.0 mm 0.00 in/hr0.0 mm/hr 0.00 in0.0 mm
08:15 AM 16.5°F-8.6°C 4.8°F-15.1°C 59% 2.9 mph SSW4.7 kmh SSW 9.8 mph15.8 kmh 29.82 in1009.8 mb 0.00 in0.0 mm 0.00 in/hr0.0 mm/hr 0.00 in0.0 mm
08:30 AM 17.2°F-8.2°C 5.1°F-14.9°C 58% 2.4 mph W3.9 kmh W 6.0 mph9.7 kmh 29.83 in1010.2 mb 0.00 in0.0 mm 0.00 in/hr0.0 mm/hr 0.00 in0.0 mm
08:45 AM 18.3°F-7.6°C 4.9°F-15.1°C 55% 3.1 mph W5.0 kmh W 7.6 mph12.2 kmh 29.83 in1010.2 mb 0.00 in0.0 mm 0.00 in/hr0.0 mm/hr 0.00 in0.0 mm
09:00 AM 19.8°F-6.8°C 7.4°F-13.7°C 58% 3.3 mph W5.3 kmh W 9.2 mph14.8 kmh 29.83 in1010.2 mb 0.00 in0.0 mm 0.00 in/hr0.0 mm/hr 0.00 in0.0 mm
09:15 AM 20.1°F-6.6°C 6.6°F-14.1°C 55% 4.5 mph N7.2 kmh N 12.1 mph19.5 kmh 29.84 in1010.5 mb 0.00 in0.0 mm 0.00 in/hr0.0 mm/hr 0.00 in0.0 mm
09:30 AM 20.5°F-6.4°C 6.5°F-14.2°C 54% 4.4 mph NW7.1 kmh NW 15.9 mph25.6 kmh 29.83 in1010.2 mb 0.00 in0.0 mm 0.00 in/hr0.0 mm/hr 0.00 in0.0 mm
09:45 AM 20.8°F-6.2°C 6.5°F-14.2°C 53% 4.1 mph WNW6.6 kmh WNW 14.5 mph23.3 kmh 29.83 in1010.2 mb 0.00 in0.0 mm 0.00 in/hr0.0 mm/hr 0.00 in0.0 mm
10:00 AM 20.8°F-6.2°C 6.5°F-14.2°C 53% 5.4 mph SW8.7 kmh SW 19.0 mph30.6 kmh 29.83 in1010.2 mb 0.00 in0.0 mm 0.00 in/hr0.0 mm/hr 0.00 in0.0 mm
10:15 AM 21.0°F-6.1°C 6.6°F-14.1°C 53% 5.7 mph WSW9.2 kmh WSW 13.0 mph20.9 kmh 29.82 in1009.8 mb 0.00 in0.0 mm 0.00 in/hr0.0 mm/hr 0.00 in0.0 mm
10:30 AM 22.5°F-5.3°C 7.5°F-13.6°C 52% 3.8 mph WNW6.1 kmh WNW 10.7 mph17.2 kmh 29.83 in1010.2 mb 0.00 in0.0 mm 0.00 in/hr0.0 mm/hr 0.00 in0.0 mm
10:45 AM 23.0°F-5.0°C 6.3°F-14.3°C 48% 5.1 mph SW8.2 kmh SW 14.5 mph23.3 kmh 29.82 in1009.8 mb 0.00 in0.0 mm 0.00 in/hr0.0 mm/hr 0.00 in0.0 mm
11:00 AM 22.8°F-5.1°C 6.6°F-14.1°C 49% 5.1 mph NNW8.2 kmh NNW 19.7 mph31.7 kmh 29.82 in1009.8 mb 0.00 in0.0 mm 0.00 in/hr0.0 mm/hr 0.00 in0.0 mm
11:15 AM 23.2°F-4.9°C 6.0°F-14.4°C 47% 4.9 mph NW7.9 kmh NW 15.2 mph24.5 kmh 29.81 in1009.5 mb 0.00 in0.0 mm 0.00 in/hr0.0 mm/hr 0.00 in0.0 mm
11:30 AM 23.9°F-4.5°C 7.1°F-13.8°C 48% 4.4 mph NW7.1 kmh NW 13.6 mph21.9 kmh 29.81 in1009.5 mb 0.00 in0.0 mm 0.00 in/hr0.0 mm/hr 0.00 in0.0 mm
11:45 AM 23.9°F-4.5°C 7.6°F-13.6°C 49% 4.6 mph WNW7.4 kmh WNW 11.4 mph18.3 kmh 29.80 in1009.1 mb 0.00 in0.0 mm 0.00 in/hr0.0 mm/hr 0.00 in0.0 mm
12:00 PM 24.1°F-4.4°C 8.2°F-13.2°C 50% 3.4 mph NNW5.5 kmh NNW 9.2 mph14.8 kmh 29.80 in1009.1 mb 0.00 in0.0 mm 0.00 in/hr0.0 mm/hr 0.00 in0.0 mm
12:15 PM 24.6°F-4.1°C 7.8°F-13.4°C 48% 3.6 mph NW5.8 kmh NW 15.9 mph25.6 kmh 29.80 in1009.1 mb 0.00 in0.0 mm 0.00 in/hr0.0 mm/hr 0.00 in0.0 mm
12:30 PM 25.0°F-3.9°C 7.6°F-13.6°C 47% 4.5 mph NW7.2 kmh NW 13.6 mph21.9 kmh 29.80 in1009.1 mb 0.00 in0.0 mm 0.00 in/hr0.0 mm/hr 0.00 in0.0 mm
12:45 PM 24.6°F-4.1°C 7.3°F-13.7°C 47% 5.2 mph WNW8.4 kmh WNW 18.3 mph29.5 kmh 29.79 in1008.8 mb 0.00 in0.0 mm 0.00 in/hr0.0 mm/hr 0.00 in0.0 mm
01:00 PM 24.8°F-4.0°C 7.5°F-13.6°C 47% 5.2 mph W8.4 kmh W 14.5 mph23.3 kmh 29.79 in1008.8 mb 0.00 in0.0 mm 0.00 in/hr0.0 mm/hr 0.00 in0.0 mm
01:15 PM 24.6°F-4.1°C 7.3°F-13.7°C 47% 5.3 mph WSW8.5 kmh WSW 15.9 mph25.6 kmh 29.77 in1008.1 mb 0.00 in0.0 mm 0.00 in/hr0.0 mm/hr 0.00 in0.0 mm
01:30 PM 25.0°F-3.9°C 7.6°F-13.6°C 47% 4.0 mph W6.4 kmh W 11.4 mph18.3 kmh 29.77 in1008.1 mb 0.00 in0.0 mm 0.00 in/hr0.0 mm/hr 0.00 in0.0 mm
01:45 PM 25.3°F-3.7°C 8.0°F-13.3°C 47% 5.4 mph W8.7 kmh W 15.2 mph24.5 kmh 29.77 in1008.1 mb 0.00 in0.0 mm 0.00 in/hr0.0 mm/hr 0.00 in0.0 mm
02:00 PM 25.0°F-3.9°C 7.6°F-13.6°C 47% 4.4 mph WSW7.1 kmh WSW 14.5 mph23.3 kmh 29.77 in1008.1 mb 0.00 in0.0 mm 0.00 in/hr0.0 mm/hr 0.00 in0.0 mm
02:15 PM 24.8°F-4.0°C 7.9°F-13.4°C 48% 5.1 mph NW8.2 kmh NW 15.2 mph24.5 kmh 29.77 in1008.1 mb 0.00 in0.0 mm 0.00 in/hr0.0 mm/hr 0.00 in0.0 mm
02:30 PM 25.3°F-3.7°C 8.4°F-13.1°C 48% 3.8 mph W6.1 kmh W 13.6 mph21.9 kmh 29.77 in1008.1 mb 0.00 in0.0 mm 0.00 in/hr0.0 mm/hr 0.00 in0.0 mm
02:45 PM 25.3°F-3.7°C 8.4°F-13.1°C 48% 5.1 mph WNW8.2 kmh WNW 22.8 mph36.7 kmh 29.77 in1008.1 mb 0.00 in0.0 mm 0.00 in/hr0.0 mm/hr 0.00 in0.0 mm
03:00 PM 25.2°F-3.8°C 8.7°F-12.9°C 49% 5.4 mph WSW8.7 kmh WSW 19.7 mph31.7 kmh 29.78 in1008.5 mb 0.00 in0.0 mm 0.00 in/hr0.0 mm/hr 0.00 in0.0 mm
03:15 PM 24.6°F-4.1°C 9.1°F-12.7°C 51% 5.6 mph W9.0 kmh W 15.2 mph24.5 kmh 29.78 in1008.5 mb 0.00 in0.0 mm 0.00 in/hr0.0 mm/hr 0.00 in0.0 mm
03:30 PM 24.6°F-4.1°C 9.1°F-12.7°C 51% 5.7 mph NNE9.2 kmh NNE 11.4 mph18.3 kmh 29.78 in1008.5 mb 0.00 in0.0 mm 0.00 in/hr0.0 mm/hr 0.00 in0.0 mm
03:45 PM 24.8°F-4.0°C 9.3°F-12.6°C 51% 5.0 mph W8.0 kmh W 13.6 mph21.9 kmh 29.79 in1008.8 mb 0.00 in0.0 mm 0.00 in/hr0.0 mm/hr 0.00 in0.0 mm
04:00 PM 24.6°F-4.1°C 10.0°F-12.2°C 53% 4.3 mph WSW6.9 kmh WSW 9.8 mph15.8 kmh 29.80 in1009.1 mb 0.00 in0.0 mm 0.00 in/hr0.0 mm/hr 0.00 in0.0 mm
04:15 PM 24.3°F-4.3°C 10.9°F-11.7°C 56% 4.0 mph W6.4 kmh W 10.7 mph17.2 kmh 29.80 in1009.1 mb 0.00 in0.0 mm 0.00 in/hr0.0 mm/hr 0.00 in0.0 mm
04:30 PM 24.1°F-4.4°C 11.5°F-11.4°C 58% 2.7 mph WSW4.3 kmh WSW 8.3 mph13.4 kmh 29.80 in1009.1 mb 0.00 in0.0 mm 0.00 in/hr0.0 mm/hr 0.00 in0.0 mm
04:45 PM 23.9°F-4.5°C 12.1°F-11.1°C 60% 3.7 mph WNW6.0 kmh WNW 13.0 mph20.9 kmh 29.81 in1009.5 mb 0.00 in0.0 mm 0.00 in/hr0.0 mm/hr 0.00 in0.0 mm
05:00 PM 24.1°F-4.4°C 12.3°F-10.9°C 60% 2.1 mph N3.4 kmh N 9.8 mph15.8 kmh 29.81 in1009.5 mb 0.00 in0.0 mm 0.00 in/hr0.0 mm/hr 0.00 in0.0 mm
05:15 PM 24.1°F-4.4°C 11.9°F-11.2°C 59% 3.3 mph WNW5.3 kmh WNW 8.3 mph13.4 kmh 29.82 in1009.8 mb 0.00 in0.0 mm 0.00 in/hr0.0 mm/hr 0.00 in0.0 mm
05:30 PM 24.1°F-4.4°C 11.5°F-11.4°C 58% 3.5 mph WNW5.6 kmh WNW 8.3 mph13.4 kmh 29.82 in1009.8 mb 0.00 in0.0 mm 0.00 in/hr0.0 mm/hr 0.00 in0.0 mm
05:45 PM 23.9°F-4.5°C 11.3°F-11.5°C 58% 3.8 mph WSW6.1 kmh WSW 10.7 mph17.2 kmh 29.83 in1010.2 mb 0.00 in0.0 mm 0.00 in/hr0.0 mm/hr 0.00 in0.0 mm
06:00 PM 24.1°F-4.4°C 11.5°F-11.4°C 58% 2.5 mph NW4.0 kmh NW 9.8 mph15.8 kmh 29.85 in1010.8 mb 0.00 in0.0 mm 0.00 in/hr0.0 mm/hr 0.00 in0.0 mm
06:15 PM 23.7°F-4.6°C 11.2°F-11.6°C 58% 3.2 mph N5.1 kmh N 12.1 mph19.5 kmh 29.85 in1010.8 mb 0.00 in0.0 mm 0.00 in/hr0.0 mm/hr 0.00 in0.0 mm
06:30 PM 23.5°F-4.7°C 8.1°F-13.3°C 51% 3.3 mph S5.3 kmh S 9.8 mph15.8 kmh 29.86 in1011.2 mb 0.00 in0.0 mm 0.00 in/hr0.0 mm/hr 0.00 in0.0 mm
06:45 PM 23.2°F-4.9°C 5.0°F-15.0°C 45% 3.6 mph NW5.8 kmh NW 12.1 mph19.5 kmh 29.88 in1011.9 mb 0.00 in0.0 mm 0.00 in/hr0.0 mm/hr 0.00 in0.0 mm
07:00 PM 22.8°F-5.1°C 3.7°F-15.7°C 43% 4.0 mph WNW6.4 kmh WNW 12.1 mph19.5 kmh 29.88 in1011.9 mb 0.00 in0.0 mm 0.00 in/hr0.0 mm/hr 0.00 in0.0 mm
07:15 PM 22.6°F-5.2°C 3.6°F-15.8°C 43% 2.6 mph NW4.2 kmh NW 10.7 mph17.2 kmh 29.88 in1011.9 mb 0.00 in0.0 mm 0.00 in/hr0.0 mm/hr 0.00 in0.0 mm
07:30 PM 22.5°F-5.3°C 3.4°F-15.9°C 43% 2.9 mph WSW4.7 kmh WSW 10.7 mph17.2 kmh 29.88 in1011.9 mb 0.00 in0.0 mm 0.00 in/hr0.0 mm/hr 0.00 in0.0 mm
07:45 PM 22.6°F-5.2°C 3.6°F-15.8°C 43% 2.1 mph W3.4 kmh W 10.7 mph17.2 kmh 29.89 in1012.2 mb 0.00 in0.0 mm 0.00 in/hr0.0 mm/hr 0.00 in0.0 mm
08:00 PM 22.8°F-5.1°C 4.2°F-15.4°C 44% 2.8 mph W4.5 kmh W 9.8 mph15.8 kmh 29.89 in1012.2 mb 0.00 in0.0 mm 0.00 in/hr0.0 mm/hr 0.00 in0.0 mm
08:15 PM 22.8°F-5.1°C 4.2°F-15.4°C 44% 2.3 mph WNW3.7 kmh WNW 8.3 mph13.4 kmh 29.89 in1012.2 mb 0.00 in0.0 mm 0.00 in/hr0.0 mm/hr 0.00 in0.0 mm
08:30 PM 23.0°F-5.0°C 4.9°F-15.1°C 45% 1.8 mph W2.9 kmh W 6.9 mph11.1 kmh 29.89 in1012.2 mb 0.00 in0.0 mm 0.00 in/hr0.0 mm/hr 0.00 in0.0 mm
08:45 PM 23.0°F-5.0°C 6.3°F-14.3°C 48% 1.5 mph NW2.4 kmh NW 3.8 mph6.1 kmh 29.90 in1012.5 mb 0.00 in0.0 mm 0.00 in/hr0.0 mm/hr 0.00 in0.0 mm
09:00 PM 23.2°F-4.9°C 7.4°F-13.7°C 50% 1.8 mph WNW2.9 kmh WNW 6.0 mph9.7 kmh 29.90 in1012.5 mb 0.00 in0.0 mm 0.00 in/hr0.0 mm/hr 0.00 in0.0 mm
09:15 PM 23.4°F-4.8°C 8.8°F-12.9°C 53% 1.3 mph NW2.1 kmh NW 4.5 mph7.2 kmh 29.90 in1012.5 mb 0.00 in0.0 mm 0.00 in/hr0.0 mm/hr 0.00 in0.0 mm
09:30 PM 23.9°F-4.5°C 10.1°F-12.2°C 55% 2.1 mph WNW3.4 kmh WNW 6.9 mph11.1 kmh 29.90 in1012.5 mb 0.00 in0.0 mm 0.00 in/hr0.0 mm/hr 0.00 in0.0 mm
09:45 PM 24.1°F-4.4°C 10.7°F-11.8°C 56% 3.5 mph W5.6 kmh W 7.6 mph12.2 kmh 29.90 in1012.5 mb 0.00 in0.0 mm 0.00 in/hr0.0 mm/hr 0.00 in0.0 mm
10:00 PM 24.1°F-4.4°C 11.1°F-11.6°C 57% 2.1 mph NW3.4 kmh NW 7.6 mph12.2 kmh 29.91 in1012.9 mb 0.00 in0.0 mm 0.00 in/hr0.0 mm/hr 0.00 in0.0 mm
10:15 PM 24.1°F-4.4°C 10.7°F-11.8°C 56% 3.0 mph W4.8 kmh W 19.0 mph30.6 kmh 29.91 in1012.9 mb 0.00 in0.0 mm 0.00 in/hr0.0 mm/hr 0.00 in0.0 mm
10:30 PM 24.1°F-4.4°C 10.7°F-11.8°C 56% 3.3 mph N5.3 kmh N 8.3 mph13.4 kmh 29.91 in1012.9 mb 0.00 in0.0 mm 0.00 in/hr0.0 mm/hr 0.00 in0.0 mm
10:45 PM 23.9°F-4.5°C 10.1°F-12.2°C 55% 3.0 mph NW4.8 kmh NW 11.4 mph18.3 kmh 29.91 in1012.9 mb 0.00 in0.0 mm 0.00 in/hr0.0 mm/hr 0.00 in0.0 mm
11:00 PM 23.9°F-4.5°C 10.1°F-12.2°C 55% 2.3 mph W3.7 kmh W 6.9 mph11.1 kmh 29.92 in1013.2 mb 0.00 in0.0 mm 0.00 in/hr0.0 mm/hr 0.00 in0.0 mm
11:15 PM 23.7°F-4.6°C 9.6°F-12.4°C 54% 2.2 mph N3.5 kmh N 7.6 mph12.2 kmh 29.92 in1013.2 mb 0.00 in0.0 mm 0.00 in/hr0.0 mm/hr 0.00 in0.0 mm
11:30 PM 23.7°F-4.6°C 9.6°F-12.4°C 54% 2.4 mph NW3.9 kmh NW 10.7 mph17.2 kmh 29.92 in1013.2 mb 0.00 in0.0 mm 0.00 in/hr0.0 mm/hr 0.00 in0.0 mm
11:45 PM 23.5°F-4.7°C 9.4°F-12.6°C 54% 1.6 mph WNW2.6 kmh WNW 5.4 mph8.7 kmh 29.93 in1013.5 mb 0.00 in0.0 mm 0.00 in/hr0.0 mm/hr 0.00 in0.0 mm